createdAt,value
2019-05-20T00:00:06.096Z,1004.92
2019-05-20T00:00:36.050Z,1004.92
2019-05-20T00:01:07.284Z,1004.91
2019-05-20T00:01:36.060Z,1004.93
2019-05-20T00:02:22.891Z,1004.93
2019-05-20T00:02:36.051Z,1004.90
2019-05-20T00:03:05.974Z,1004.89
2019-05-20T00:03:36.043Z,1004.88
2019-05-20T00:04:08.288Z,1004.86
2019-05-20T00:04:36.057Z,1004.88
2019-05-20T00:05:05.978Z,1004.88
2019-05-20T00:05:36.046Z,1004.87
2019-05-20T00:06:06.005Z,1004.87
2019-05-20T00:06:36.055Z,1004.84
2019-05-20T00:07:05.976Z,1004.82
2019-05-20T00:07:36.046Z,1004.83
2019-05-20T00:08:06.014Z,1004.84
2019-05-20T00:08:36.042Z,1004.83
2019-05-20T00:09:05.993Z,1004.79
2019-05-20T00:09:36.039Z,1004.84
2019-05-20T00:10:05.982Z,1004.80
2019-05-20T00:10:36.142Z,1004.83
2019-05-20T00:11:06.015Z,1004.79
2019-05-20T00:11:37.343Z,1004.79
2019-05-20T00:12:05.990Z,1004.84
2019-05-20T00:12:40.154Z,1004.81
2019-05-20T00:13:05.982Z,1004.82
2019-05-20T00:13:36.049Z,1004.80
2019-05-20T00:14:05.994Z,1004.81
2019-05-20T00:14:38.323Z,1004.78
2019-05-20T00:15:05.982Z,1004.81
2019-05-20T00:16:05.987Z,1004.83
2019-05-20T00:16:36.053Z,1004.82
2019-05-20T00:17:06.001Z,1004.83
2019-05-20T00:17:36.047Z,1004.82
2019-05-20T00:18:05.980Z,1004.82
2019-05-20T00:18:36.049Z,1004.83
2019-05-20T00:19:05.979Z,1004.83
2019-05-20T00:19:36.045Z,1004.80
2019-05-20T00:20:05.986Z,1004.80
2019-05-20T00:20:36.050Z,1004.80
2019-05-20T00:21:05.977Z,1004.77
2019-05-20T00:21:36.047Z,1004.77
2019-05-20T00:22:07.202Z,1004.75
2019-05-20T00:22:36.046Z,1004.75
2019-05-20T00:23:08.192Z,1004.75
2019-05-20T00:23:36.050Z,1004.70
2019-05-20T00:24:06.017Z,1004.73
2019-05-20T00:24:36.045Z,1004.69
2019-05-20T00:25:08.323Z,1004.71
2019-05-20T00:25:36.040Z,1004.69
2019-05-20T00:26:05.982Z,1004.70
2019-05-20T00:26:36.064Z,1004.71
2019-05-20T00:27:06.076Z,1004.68
2019-05-20T00:27:36.042Z,1004.70
2019-05-20T00:28:05.995Z,1004.68
2019-05-20T00:28:36.077Z,1004.69
2019-05-20T00:29:06.072Z,1004.69
2019-05-20T00:29:36.039Z,1004.67
2019-05-20T00:30:05.986Z,1004.65
2019-05-20T00:30:36.050Z,1004.68
2019-05-20T00:31:06.049Z,1004.64
2019-05-20T00:31:36.051Z,1004.62
2019-05-20T00:32:05.996Z,1004.62
2019-05-20T00:32:43.260Z,1004.61
2019-05-20T00:33:06.027Z,1004.59
2019-05-20T00:33:40.109Z,1004.62
2019-05-20T00:34:05.980Z,1004.60
2019-05-20T00:34:37.075Z,1004.63
2019-05-20T00:35:05.988Z,1004.63
2019-05-20T00:35:38.342Z,1004.62
2019-05-20T00:36:06.029Z,1004.61
2019-05-20T00:37:05.993Z,1004.61
2019-05-20T00:37:36.156Z,1004.60
2019-05-20T00:38:06.181Z,1004.60
2019-05-20T00:38:36.046Z,1004.58
2019-05-20T00:39:06.000Z,1004.58
2019-05-20T00:39:36.118Z,1004.58
2019-05-20T00:40:05.990Z,1004.60
2019-05-20T00:40:36.046Z,1004.60
2019-05-20T00:41:06.008Z,1004.63
2019-05-20T00:41:36.097Z,1004.57
2019-05-20T00:42:06.020Z,1004.56
2019-05-20T00:42:36.059Z,1004.56
2019-05-20T00:43:07.244Z,1004.54
2019-05-20T00:43:36.074Z,1004.55
2019-05-20T00:44:08.226Z,1004.53
2019-05-20T00:44:36.051Z,1004.55
2019-05-20T00:45:05.988Z,1004.54
2019-05-20T00:45:36.052Z,1004.55
2019-05-20T00:46:08.458Z,1004.55
2019-05-20T00:46:36.059Z,1004.53
2019-05-20T00:47:06.004Z,1004.51
2019-05-20T00:47:36.170Z,1004.53
2019-05-20T00:48:05.994Z,1004.51
2019-05-20T00:48:36.055Z,1004.51
2019-05-20T00:49:05.992Z,1004.51
2019-05-20T00:49:36.057Z,1004.50
2019-05-20T00:50:06.235Z,1004.50
2019-05-20T00:50:36.047Z,1004.49
2019-05-20T00:51:05.985Z,1004.47
2019-05-20T00:51:36.051Z,1004.50
2019-05-20T00:52:06.092Z,1004.47
2019-05-20T00:52:36.055Z,1004.48
2019-05-20T00:53:05.997Z,1004.48
2019-05-20T00:53:37.302Z,1004.46
2019-05-20T00:54:06.095Z,1004.47
2019-05-20T00:54:40.114Z,1004.49
2019-05-20T00:55:05.993Z,1004.46
2019-05-20T00:55:36.058Z,1004.46
2019-05-20T00:56:06.002Z,1004.45
2019-05-20T00:56:38.365Z,1004.45
2019-05-20T00:57:06.003Z,1004.48
2019-05-20T00:58:05.999Z,1004.45
2019-05-20T00:58:36.059Z,1004.42
2019-05-20T00:59:06.021Z,1004.45
2019-05-20T00:59:36.071Z,1004.42
2019-05-20T01:00:06.022Z,1004.44
2019-05-20T01:00:36.051Z,1004.41
2019-05-20T01:01:05.998Z,1004.44
2019-05-20T01:01:36.050Z,1004.43
2019-05-20T01:02:05.993Z,1004.46
2019-05-20T01:02:36.144Z,1004.43
2019-05-20T01:03:05.999Z,1004.43
2019-05-20T01:03:36.062Z,1004.43
2019-05-20T01:04:07.251Z,1004.40
2019-05-20T01:04:36.145Z,1004.40
2019-05-20T01:05:08.082Z,1004.38
2019-05-20T01:05:36.056Z,1004.41
2019-05-20T01:06:05.989Z,1004.39
2019-05-20T01:06:36.099Z,1004.38
2019-05-20T01:07:36.054Z,1004.36
2019-05-20T01:08:05.993Z,1004.41
2019-05-20T01:08:36.083Z,1004.38
2019-05-20T01:09:05.997Z,1004.38
2019-05-20T01:09:36.061Z,1004.37
2019-05-20T01:10:06.004Z,1004.36
2019-05-20T01:10:36.076Z,1004.36
2019-05-20T01:11:06.000Z,1004.37
2019-05-20T01:11:36.051Z,1004.38
2019-05-20T01:12:06.007Z,1004.34
2019-05-20T01:12:36.063Z,1004.35
2019-05-20T01:13:05.999Z,1004.35
2019-05-20T01:13:36.126Z,1004.34
2019-05-20T01:14:06.003Z,1004.35
2019-05-20T01:15:06.002Z,1004.31
2019-05-20T01:15:40.121Z,1004.32
2019-05-20T01:16:06.012Z,1004.34
2019-05-20T01:16:36.061Z,1004.35
2019-05-20T01:17:06.045Z,1004.34
2019-05-20T01:17:38.357Z,1004.33
2019-05-20T01:18:05.999Z,1004.30
2019-05-20T01:19:06.128Z,1004.30
2019-05-20T01:19:36.050Z,1004.33
2019-05-20T01:20:06.008Z,1004.31
2019-05-20T01:20:36.048Z,1004.32
2019-05-20T01:21:06.108Z,1004.28
2019-05-20T01:21:36.059Z,1004.31
2019-05-20T01:22:36.059Z,1004.33
2019-05-20T01:23:06.045Z,1004.34
2019-05-20T01:23:36.052Z,1004.30
2019-05-20T01:24:05.999Z,1004.32
2019-05-20T01:25:07.214Z,1004.30
2019-05-20T01:25:36.061Z,1004.33
2019-05-20T01:26:08.119Z,1004.32
2019-05-20T01:26:36.063Z,1004.32
2019-05-20T01:27:36.162Z,1004.35
2019-05-20T01:28:08.444Z,1004.35
2019-05-20T01:28:36.060Z,1004.36
2019-05-20T01:29:06.002Z,1004.35
2019-05-20T01:30:06.003Z,1004.34
2019-05-20T01:30:36.060Z,1004.34
2019-05-20T01:31:06.003Z,1004.33
2019-05-20T01:31:36.103Z,1004.33
2019-05-20T01:32:36.069Z,1004.34
2019-05-20T01:33:14.067Z,1004.38
2019-05-20T01:33:36.123Z,1004.33
2019-05-20T01:34:06.011Z,1004.33
2019-05-20T01:35:06.006Z,1004.33
2019-05-20T01:35:37.251Z,1004.35
2019-05-20T01:36:06.004Z,1004.34
2019-05-20T01:36:40.120Z,1004.38
2019-05-20T01:37:06.001Z,1004.34
2019-05-20T01:37:36.063Z,1004.33
2019-05-20T01:38:06.003Z,1004.32
2019-05-20T01:38:38.444Z,1004.34
2019-05-20T01:39:06.008Z,1004.33
2019-05-20T01:40:06.011Z,1004.34
2019-05-20T01:40:36.071Z,1004.33
2019-05-20T01:41:06.007Z,1004.31
2019-05-20T01:41:36.075Z,1004.31
2019-05-20T01:42:36.061Z,1004.32
2019-05-20T01:43:06.025Z,1004.33
2019-05-20T01:43:36.069Z,1004.32
2019-05-20T01:44:06.026Z,1004.35
2019-05-20T01:45:06.034Z,1004.34
2019-05-20T01:45:36.071Z,1004.31
2019-05-20T01:46:07.425Z,1004.33
2019-05-20T01:46:36.065Z,1004.33
2019-05-20T01:47:36.059Z,1004.36
2019-05-20T01:48:06.024Z,1004.37
2019-05-20T01:48:36.065Z,1004.38
2019-05-20T01:49:08.309Z,1004.38
2019-05-20T01:50:36.070Z,1004.40
2019-05-20T01:51:06.001Z,1004.41
2019-05-20T01:51:37.152Z,1004.39
2019-05-20T01:52:06.040Z,1004.35
2019-05-20T01:52:36.083Z,1004.37
2019-05-20T01:53:06.023Z,1004.37
2019-05-20T01:53:36.062Z,1004.35
2019-05-20T01:54:06.007Z,1004.34
2019-05-20T01:55:06.058Z,1004.36
2019-05-20T01:55:36.075Z,1004.33
2019-05-20T01:56:06.021Z,1004.32
2019-05-20T01:56:37.186Z,1004.32
2019-05-20T01:57:40.125Z,1004.29
2019-05-20T01:58:06.015Z,1004.28
2019-05-20T01:58:38.980Z,1004.27
2019-05-20T01:59:06.019Z,1004.30
2019-05-20T01:59:38.303Z,1004.29
2019-05-20T02:00:06.023Z,1004.29
2019-05-20T02:01:06.017Z,1004.29
2019-05-20T02:01:36.067Z,1004.31
2019-05-20T02:02:06.041Z,1004.28
2019-05-20T02:02:36.081Z,1004.27
2019-05-20T02:03:06.019Z,1004.27
2019-05-20T02:03:36.074Z,1004.28
2019-05-20T02:04:06.006Z,1004.25
2019-05-20T02:05:06.020Z,1004.30
2019-05-20T02:05:36.071Z,1004.25
2019-05-20T02:06:06.005Z,1004.26
2019-05-20T02:06:36.075Z,1004.30
2019-05-20T02:07:36.073Z,1004.28
2019-05-20T02:08:08.116Z,1004.25
2019-05-20T02:08:36.073Z,1004.28
2019-05-20T02:09:06.025Z,1004.26
2019-05-20T02:10:08.297Z,1004.30
2019-05-20T02:10:38.482Z,1004.28
2019-05-20T02:11:37.117Z,1004.28
2019-05-20T02:12:06.262Z,1004.30
2019-05-20T02:12:36.502Z,1004.30
2019-05-20T02:13:06.126Z,1004.31
2019-05-20T02:13:36.075Z,1004.30
2019-05-20T02:14:06.037Z,1004.31
2019-05-20T02:15:06.028Z,1004.30
2019-05-20T02:15:36.091Z,1004.31
2019-05-20T02:16:06.018Z,1004.30
2019-05-20T02:16:36.077Z,1004.32
2019-05-20T02:17:37.243Z,1004.30
2019-05-20T02:18:06.029Z,1004.29
2019-05-20T02:18:40.115Z,1004.29
2019-05-20T02:19:06.018Z,1004.32
2019-05-20T02:20:06.185Z,1004.32
2019-05-20T02:20:38.283Z,1004.29
2019-05-20T02:21:06.081Z,1004.29
2019-05-20T02:22:06.018Z,1004.26
2019-05-20T02:22:36.078Z,1004.31
2019-05-20T02:23:06.021Z,1004.30
2019-05-20T02:23:36.178Z,1004.30
2019-05-20T02:24:06.029Z,1004.30
2019-05-20T02:25:06.018Z,1004.29
2019-05-20T02:25:36.128Z,1004.28
2019-05-20T02:26:06.030Z,1004.31
2019-05-20T02:26:36.076Z,1004.30
2019-05-20T02:27:36.078Z,1004.31
2019-05-20T02:28:07.288Z,1004.30
2019-05-20T02:28:36.071Z,1004.30
2019-05-20T02:29:08.133Z,1004.30
2019-05-20T02:30:06.029Z,1004.32
2019-05-20T02:30:36.076Z,1004.32
2019-05-20T02:31:08.305Z,1004.31
2019-05-20T02:31:36.084Z,1004.32
2019-05-20T02:32:06.020Z,1004.31
2019-05-20T02:32:36.075Z,1004.30
2019-05-20T02:33:06.022Z,1004.30
2019-05-20T02:33:51.395Z,1004.30
2019-05-20T02:34:06.014Z,1004.32
2019-05-20T02:34:36.089Z,1004.31
2019-05-20T02:35:06.019Z,1004.30
2019-05-20T02:35:36.083Z,1004.29
2019-05-20T02:36:06.162Z,1004.32
2019-05-20T02:36:36.086Z,1004.29
2019-05-20T02:37:06.038Z,1004.31
2019-05-20T02:37:36.089Z,1004.31
2019-05-20T02:38:06.094Z,1004.31
2019-05-20T02:38:37.337Z,1004.31
2019-05-20T02:39:06.019Z,1004.32
2019-05-20T02:40:06.150Z,1004.31
2019-05-20T02:40:36.080Z,1004.31
2019-05-20T02:41:06.018Z,1004.33
2019-05-20T02:41:38.290Z,1004.32
2019-05-20T02:43:06.027Z,1004.31
2019-05-20T02:43:36.078Z,1004.32
2019-05-20T02:44:06.049Z,1004.30
2019-05-20T02:44:36.080Z,1004.32
2019-05-20T02:45:06.050Z,1004.33
2019-05-20T02:45:36.103Z,1004.27
2019-05-20T02:46:06.060Z,1004.30
2019-05-20T02:46:36.204Z,1004.34
2019-05-20T02:47:36.085Z,1004.30
2019-05-20T02:48:06.028Z,1004.29
2019-05-20T02:48:36.179Z,1004.31
2019-05-20T02:49:07.208Z,1004.27
2019-05-20T02:50:10.106Z,1004.29
2019-05-20T02:50:36.143Z,1004.29
2019-05-20T02:51:06.029Z,1004.29
2019-05-20T02:51:36.090Z,1004.28
2019-05-20T02:52:36.114Z,1004.24
2019-05-20T02:53:06.019Z,1004.31
2019-05-20T02:53:36.085Z,1004.29
2019-05-20T02:54:06.024Z,1004.27
2019-05-20T02:55:06.033Z,1004.28
2019-05-20T02:55:36.088Z,1004.31
2019-05-20T02:56:07.040Z,1004.29
2019-05-20T02:56:36.087Z,1004.32
2019-05-20T02:57:36.093Z,1004.32
2019-05-20T02:58:06.026Z,1004.31
2019-05-20T02:58:36.184Z,1004.30
2019-05-20T02:59:06.028Z,1004.29
2019-05-20T03:00:06.030Z,1004.30
2019-05-20T03:00:40.111Z,1004.33
2019-05-20T03:01:06.135Z,1004.32
2019-05-20T03:01:36.085Z,1004.32
2019-05-20T03:02:38.306Z,1004.34
2019-05-20T03:03:06.149Z,1004.33
2019-05-20T03:04:12.773Z,1004.35
2019-05-20T03:04:36.092Z,1004.33
2019-05-20T03:05:06.101Z,1004.32
2019-05-20T03:05:36.092Z,1004.29
2019-05-20T03:06:06.029Z,1004.33
2019-05-20T03:06:36.097Z,1004.32
2019-05-20T03:07:36.093Z,1004.32
2019-05-20T03:08:06.034Z,1004.32
2019-05-20T03:08:36.090Z,1004.33
2019-05-20T03:09:06.031Z,1004.31
2019-05-20T03:10:07.294Z,1004.35
2019-05-20T03:10:36.084Z,1004.32
2019-05-20T03:11:10.123Z,1004.33
2019-05-20T03:11:36.111Z,1004.31
2019-05-20T03:12:06.026Z,1004.34
2019-05-20T03:12:36.110Z,1004.30
2019-05-20T03:13:08.248Z,1004.32
2019-05-20T03:13:36.232Z,1004.31
2019-05-20T03:14:36.088Z,1004.31
2019-05-20T03:15:06.047Z,1004.32
2019-05-20T03:15:36.169Z,1004.32
2019-05-20T03:16:06.037Z,1004.28
2019-05-20T03:16:36.097Z,1004.31
2019-05-20T03:17:36.141Z,1004.32
2019-05-20T03:18:06.035Z,1004.31
2019-05-20T03:18:36.087Z,1004.33
2019-05-20T03:19:06.027Z,1004.31
2019-05-20T03:20:06.047Z,1004.33
2019-05-20T03:20:37.230Z,1004.34
2019-05-20T03:21:06.037Z,1004.34
2019-05-20T03:21:40.130Z,1004.35
2019-05-20T03:22:36.101Z,1004.34
2019-05-20T03:23:06.049Z,1004.37
2019-05-20T03:23:38.336Z,1004.34
2019-05-20T03:24:06.031Z,1004.37
2019-05-20T03:25:06.034Z,1004.35
2019-05-20T03:25:36.100Z,1004.38
2019-05-20T03:26:06.032Z,1004.37
2019-05-20T03:26:36.094Z,1004.39
2019-05-20T03:27:36.098Z,1004.37
2019-05-20T03:28:06.045Z,1004.37
2019-05-20T03:28:36.092Z,1004.36
2019-05-20T03:29:06.034Z,1004.34
2019-05-20T03:30:06.100Z,1004.35
2019-05-20T03:30:36.133Z,1004.34
2019-05-20T03:31:07.332Z,1004.36
2019-05-20T03:31:36.102Z,1004.36
2019-05-20T03:32:10.110Z,1004.35
2019-05-20T03:32:36.100Z,1004.34
2019-05-20T03:33:06.043Z,1004.35
2019-05-20T03:33:36.104Z,1004.35
2019-05-20T03:34:08.282Z,1004.35
2019-05-20T03:35:37.115Z,1004.34
2019-05-20T03:36:06.100Z,1004.34
2019-05-20T03:36:36.227Z,1004.38
2019-05-20T03:37:06.066Z,1004.34
2019-05-20T03:37:36.107Z,1004.32
2019-05-20T03:38:06.046Z,1004.32
2019-05-20T03:38:36.199Z,1004.34
2019-05-20T03:39:06.053Z,1004.32
2019-05-20T03:40:06.117Z,1004.34
2019-05-20T03:40:36.282Z,1004.33
2019-05-20T03:41:06.034Z,1004.35
2019-05-20T03:41:37.226Z,1004.30
2019-05-20T03:42:40.124Z,1004.31
2019-05-20T03:43:06.044Z,1004.32
2019-05-20T03:43:36.098Z,1004.33
2019-05-20T03:44:06.035Z,1004.36
2019-05-20T03:45:06.043Z,1004.36
2019-05-20T03:46:06.048Z,1004.36
2019-05-20T03:46:36.109Z,1004.37
2019-05-20T03:47:06.050Z,1004.36
2019-05-20T03:47:36.101Z,1004.38
2019-05-20T03:48:06.039Z,1004.34
2019-05-20T03:48:36.107Z,1004.38
2019-05-20T03:49:06.046Z,1004.40
2019-05-20T03:50:06.035Z,1004.36
2019-05-20T03:50:36.093Z,1004.40
2019-05-20T03:51:06.046Z,1004.39
2019-05-20T03:51:36.102Z,1004.40
2019-05-20T03:52:36.102Z,1004.41
2019-05-20T03:53:10.166Z,1004.42
2019-05-20T03:53:36.097Z,1004.43
2019-05-20T03:54:06.038Z,1004.44
2019-05-20T03:55:08.313Z,1004.43
2019-05-20T03:55:36.102Z,1004.44
2019-05-20T03:56:06.041Z,1004.45
2019-05-20T03:56:36.093Z,1004.46
2019-05-20T03:57:36.098Z,1004.47
2019-05-20T03:58:06.059Z,1004.45
2019-05-20T03:58:36.102Z,1004.48
2019-05-20T03:59:06.116Z,1004.47
2019-05-20T04:00:06.054Z,1004.48
2019-05-20T04:00:36.115Z,1004.48
2019-05-20T04:01:06.082Z,1004.50
2019-05-20T04:01:36.832Z,1004.50
2019-05-20T04:02:37.536Z,1004.50
2019-05-20T04:03:06.070Z,1004.50
2019-05-20T04:03:40.176Z,1004.51
2019-05-20T04:04:06.050Z,1004.52
2019-05-20T04:05:06.059Z,1004.53
2019-05-20T04:05:38.350Z,1004.55
2019-05-20T04:06:06.059Z,1004.53
2019-05-20T04:06:39.154Z,1004.56
2019-05-20T04:07:36.148Z,1004.57
2019-05-20T04:08:06.055Z,1004.56
2019-05-20T04:08:36.106Z,1004.55
2019-05-20T04:09:06.049Z,1004.54
2019-05-20T04:10:06.164Z,1004.56
2019-05-20T04:10:36.111Z,1004.57
2019-05-20T04:11:06.049Z,1004.56
2019-05-20T04:11:36.109Z,1004.55
2019-05-20T04:12:36.141Z,1004.56
2019-05-20T04:13:07.215Z,1004.55
2019-05-20T04:13:37.122Z,1004.56
2019-05-20T04:14:10.184Z,1004.53
2019-05-20T04:15:06.048Z,1004.54
2019-05-20T04:15:36.098Z,1004.55
2019-05-20T04:16:08.431Z,1004.56
2019-05-20T04:16:36.116Z,1004.52
2019-05-20T04:17:36.125Z,1004.50
2019-05-20T04:18:06.050Z,1004.52
2019-05-20T04:18:36.098Z,1004.53
2019-05-20T04:19:06.059Z,1004.55
2019-05-20T04:20:06.099Z,1004.56
2019-05-20T04:20:36.105Z,1004.54
2019-05-20T04:21:06.051Z,1004.56
2019-05-20T04:21:36.117Z,1004.57
2019-05-20T04:22:36.108Z,1004.55
2019-05-20T04:23:06.065Z,1004.56
2019-05-20T04:23:37.412Z,1004.55
2019-05-20T04:24:07.092Z,1004.57
2019-05-20T04:25:06.051Z,1004.59
2019-05-20T04:25:36.107Z,1004.57
2019-05-20T04:26:06.098Z,1004.58
2019-05-20T04:26:38.416Z,1004.57
2019-05-20T04:27:39.156Z,1004.56
2019-05-20T04:28:06.060Z,1004.57
2019-05-20T04:28:36.128Z,1004.57
2019-05-20T04:29:06.059Z,1004.56
2019-05-20T04:30:06.054Z,1004.58
2019-05-20T04:30:36.214Z,1004.55
2019-05-20T04:31:06.138Z,1004.53
2019-05-20T04:31:36.108Z,1004.56
2019-05-20T04:32:36.167Z,1004.55
2019-05-20T04:33:06.088Z,1004.54
2019-05-20T04:33:36.119Z,1004.52
2019-05-20T04:34:07.238Z,1004.55
2019-05-20T04:35:21.846Z,1004.56
2019-05-20T04:35:36.105Z,1004.56
2019-05-20T04:36:06.058Z,1004.55
2019-05-20T04:36:36.129Z,1004.54
2019-05-20T04:37:36.113Z,1004.54
2019-05-20T04:38:36.146Z,1004.58
2019-05-20T04:39:06.055Z,1004.55
2019-05-20T04:39:36.111Z,1004.55
2019-05-20T04:40:06.059Z,1004.58
2019-05-20T04:40:36.120Z,1004.58
2019-05-20T04:41:06.048Z,1004.59
2019-05-20T04:41:37.127Z,1004.57
2019-05-20T04:42:36.109Z,1004.58
2019-05-20T04:43:06.053Z,1004.57
2019-05-20T04:43:36.210Z,1004.57
2019-05-20T04:44:06.051Z,1004.59
2019-05-20T04:45:06.065Z,1004.58
2019-05-20T04:45:40.149Z,1004.59
2019-05-20T04:46:06.056Z,1004.59
2019-05-20T04:46:36.114Z,1004.62
2019-05-20T04:47:38.279Z,1004.60
2019-05-20T04:48:06.062Z,1004.61
2019-05-20T04:48:39.155Z,1004.59
2019-05-20T04:49:06.109Z,1004.60
2019-05-20T04:50:06.068Z,1004.57
2019-05-20T04:50:36.109Z,1004.61
2019-05-20T04:51:06.123Z,1004.60
2019-05-20T04:51:36.115Z,1004.61
2019-05-20T04:52:36.115Z,1004.60
2019-05-20T04:53:06.065Z,1004.62
2019-05-20T04:53:36.130Z,1004.62
2019-05-20T04:54:06.086Z,1004.61
2019-05-20T04:55:07.254Z,1004.61
2019-05-20T04:55:36.124Z,1004.60
2019-05-20T04:56:10.117Z,1004.60
2019-05-20T04:56:36.117Z,1004.64
2019-05-20T04:57:06.055Z,1004.62
2019-05-20T04:57:36.238Z,1004.63
2019-05-20T04:58:08.473Z,1004.63
2019-05-20T04:58:36.118Z,1004.66
2019-05-20T04:59:36.166Z,1004.68
2019-05-20T05:00:06.056Z,1004.67
2019-05-20T05:00:36.124Z,1004.68
2019-05-20T05:01:06.062Z,1004.68
2019-05-20T05:01:36.170Z,1004.70
2019-05-20T05:02:36.114Z,1004.69
2019-05-20T05:03:06.061Z,1004.71
2019-05-20T05:03:36.126Z,1004.69
2019-05-20T05:04:06.066Z,1004.71
2019-05-20T05:05:06.062Z,1004.74
2019-05-20T05:05:40.266Z,1004.73
2019-05-20T05:06:06.060Z,1004.72
2019-05-20T05:06:40.142Z,1004.76
2019-05-20T05:07:36.130Z,1004.74
2019-05-20T05:08:06.059Z,1004.77
2019-05-20T05:08:38.455Z,1004.75
2019-05-20T05:09:06.058Z,1004.74
2019-05-20T05:10:06.064Z,1004.79
2019-05-20T05:10:36.143Z,1004.79
2019-05-20T05:11:06.062Z,1004.78
2019-05-20T05:11:36.123Z,1004.79
2019-05-20T05:12:36.118Z,1004.80
2019-05-20T05:13:06.064Z,1004.82
2019-05-20T05:13:36.113Z,1004.83
2019-05-20T05:14:06.153Z,1004.85
2019-05-20T05:15:09.115Z,1004.83
2019-05-20T05:15:36.119Z,1004.86
2019-05-20T05:16:07.405Z,1004.84
2019-05-20T05:16:36.143Z,1004.88
2019-05-20T05:17:10.129Z,1004.84
2019-05-20T05:17:36.129Z,1004.87
2019-05-20T05:18:06.110Z,1004.87
2019-05-20T05:18:36.120Z,1004.88
2019-05-20T05:19:08.479Z,1004.87
2019-05-20T05:20:36.349Z,1004.88
2019-05-20T05:21:06.063Z,1004.88
2019-05-20T05:21:36.125Z,1004.92
2019-05-20T05:22:06.068Z,1004.89
2019-05-20T05:22:36.132Z,1004.87
2019-05-20T05:23:06.062Z,1004.89
2019-05-20T05:23:36.122Z,1004.90
2019-05-20T05:24:06.068Z,1004.92
2019-05-20T05:25:06.070Z,1004.91
2019-05-20T05:25:36.153Z,1004.94
2019-05-20T05:26:06.060Z,1004.97
2019-05-20T05:26:37.432Z,1004.99
2019-05-20T05:27:40.157Z,1004.98
2019-05-20T05:28:06.062Z,1005.00
2019-05-20T05:28:36.126Z,1004.99
2019-05-20T05:29:06.060Z,1005.00
2019-05-20T05:30:06.077Z,1005.02
2019-05-20T05:30:39.165Z,1005.01
2019-05-20T05:31:06.117Z,1005.03
2019-05-20T05:31:36.127Z,1005.01
2019-05-20T05:32:36.129Z,1005.01
2019-05-20T05:33:06.078Z,1005.02
2019-05-20T05:33:36.133Z,1005.04
2019-05-20T05:34:06.065Z,1005.02
2019-05-20T05:35:06.071Z,1005.02
2019-05-20T05:35:36.124Z,1005.03
2019-05-20T05:36:06.076Z,1005.02
2019-05-20T05:36:36.127Z,1005.02
2019-05-20T05:37:36.127Z,1005.00
2019-05-20T05:38:09.162Z,1004.99
2019-05-20T05:38:36.134Z,1005.00
2019-05-20T05:39:06.202Z,1004.97
2019-05-20T05:40:09.369Z,1005.00
2019-05-20T05:40:36.127Z,1004.97
2019-05-20T05:41:36.150Z,1004.97
2019-05-20T05:42:06.072Z,1004.99
2019-05-20T05:42:36.120Z,1004.95
2019-05-20T05:43:06.253Z,1004.97
2019-05-20T05:43:36.139Z,1004.98
2019-05-20T05:44:06.067Z,1004.94
2019-05-20T05:45:06.100Z,1004.94
2019-05-20T05:45:36.134Z,1004.95
2019-05-20T05:46:06.064Z,1004.93
2019-05-20T05:46:37.384Z,1004.89
2019-05-20T05:47:37.302Z,1004.92
2019-05-20T05:48:06.068Z,1004.91
2019-05-20T05:48:40.157Z,1004.91
2019-05-20T05:49:06.084Z,1004.91
2019-05-20T05:50:06.088Z,1004.90
2019-05-20T05:50:38.354Z,1004.88
2019-05-20T05:51:06.083Z,1004.87
2019-05-20T05:51:39.180Z,1004.84
2019-05-20T05:52:36.133Z,1004.83
2019-05-20T05:53:06.066Z,1004.82
2019-05-20T05:53:36.142Z,1004.84
2019-05-20T05:54:06.080Z,1004.80
2019-05-20T05:55:06.074Z,1004.79
2019-05-20T05:55:36.128Z,1004.81
2019-05-20T05:56:06.066Z,1004.79
2019-05-20T05:56:36.132Z,1004.80
2019-05-20T05:57:36.167Z,1004.83
2019-05-20T05:58:10.398Z,1004.81
2019-05-20T05:58:36.129Z,1004.82
2019-05-20T05:59:10.139Z,1004.83
2019-05-20T05:59:36.130Z,1004.82
2019-05-20T06:00:06.074Z,1004.81
2019-05-20T06:00:36.135Z,1004.80
2019-05-20T06:01:08.450Z,1004.83
2019-05-20T06:01:36.135Z,1004.84
2019-05-20T06:02:36.133Z,1004.87
2019-05-20T06:03:06.074Z,1004.84
2019-05-20T06:03:36.130Z,1004.87
2019-05-20T06:04:06.090Z,1004.90
2019-05-20T06:05:06.072Z,1004.91
2019-05-20T06:05:36.143Z,1004.91
2019-05-20T06:06:13.220Z,1004.93
2019-05-20T06:06:36.128Z,1004.94
2019-05-20T06:07:36.138Z,1004.94
2019-05-20T06:08:06.083Z,1004.95
2019-05-20T06:08:37.312Z,1004.95
2019-05-20T06:09:06.075Z,1004.93
2019-05-20T06:10:06.078Z,1004.96
2019-05-20T06:10:37.232Z,1004.95
2019-05-20T06:11:06.077Z,1004.94
2019-05-20T06:11:38.342Z,1004.96
2019-05-20T06:12:39.264Z,1004.96
2019-05-20T06:13:07.097Z,1004.94
2019-05-20T06:13:36.131Z,1004.98
2019-05-20T06:14:06.096Z,1004.96
2019-05-20T06:15:06.071Z,1004.98
2019-05-20T06:15:36.134Z,1004.98
2019-05-20T06:16:06.073Z,1004.97
2019-05-20T06:16:38.195Z,1005.00
2019-05-20T06:17:36.145Z,1005.01
2019-05-20T06:18:06.074Z,1004.99
2019-05-20T06:18:36.217Z,1004.99
2019-05-20T06:19:06.076Z,1005.02
2019-05-20T06:19:36.136Z,1005.01
2019-05-20T06:20:09.310Z,1005.00
2019-05-20T06:20:36.151Z,1005.02
2019-05-20T06:21:06.085Z,1005.03
2019-05-20T06:21:36.154Z,1004.99
2019-05-20T06:22:36.186Z,1004.98
2019-05-20T06:23:09.100Z,1005.00
2019-05-20T06:23:36.151Z,1004.98
2019-05-20T06:24:06.075Z,1005.00
2019-05-20T06:25:06.085Z,1004.96
2019-05-20T06:25:36.154Z,1004.96
2019-05-20T06:26:06.073Z,1004.96
2019-05-20T06:26:36.133Z,1004.91
2019-05-20T06:27:36.200Z,1004.90
2019-05-20T06:28:06.081Z,1004.94
2019-05-20T06:28:36.150Z,1004.93
2019-05-20T06:29:06.086Z,1004.92
2019-05-20T06:30:06.071Z,1004.92
2019-05-20T06:30:39.420Z,1004.95
2019-05-20T06:31:06.156Z,1004.94
2019-05-20T06:31:36.142Z,1004.95
2019-05-20T06:32:37.249Z,1004.95
2019-05-20T06:33:06.080Z,1004.94
2019-05-20T06:33:40.256Z,1004.97
2019-05-20T06:34:06.080Z,1004.94
2019-05-20T06:35:06.113Z,1004.95
2019-05-20T06:35:36.142Z,1004.91
2019-05-20T06:36:06.091Z,1004.94
2019-05-20T06:36:36.136Z,1004.91
2019-05-20T06:37:36.234Z,1004.94
2019-05-20T06:38:06.089Z,1004.85
2019-05-20T06:38:36.174Z,1004.88
2019-05-20T06:39:06.095Z,1004.89
2019-05-20T06:40:06.083Z,1004.89
2019-05-20T06:40:36.152Z,1004.88
2019-05-20T06:41:09.399Z,1004.87
2019-05-20T06:41:36.179Z,1004.86
2019-05-20T06:42:38.887Z,1004.87
2019-05-20T06:43:07.701Z,1004.86
2019-05-20T06:43:36.211Z,1004.85
2019-05-20T06:44:10.144Z,1004.87
2019-05-20T06:45:06.086Z,1004.86
2019-05-20T06:45:36.182Z,1004.83
2019-05-20T06:46:06.082Z,1004.83
2019-05-20T06:46:36.145Z,1004.88
2019-05-20T06:47:36.146Z,1004.88
2019-05-20T06:48:06.088Z,1004.90
2019-05-20T06:48:36.163Z,1004.88
2019-05-20T06:49:06.085Z,1004.90
2019-05-20T06:50:06.107Z,1004.90
2019-05-20T06:50:36.234Z,1004.91
2019-05-20T06:51:06.087Z,1004.89
2019-05-20T06:51:39.448Z,1004.86
2019-05-20T06:52:41.136Z,1004.86
2019-05-20T06:53:06.097Z,1004.86
2019-05-20T06:53:37.266Z,1004.83
2019-05-20T06:54:06.167Z,1004.86
2019-05-20T06:55:06.083Z,1004.83
2019-05-20T06:55:36.149Z,1004.84
2019-05-20T06:56:06.109Z,1004.83
2019-05-20T06:56:36.185Z,1004.86
2019-05-20T06:57:36.159Z,1004.85
2019-05-20T06:58:06.231Z,1004.89
2019-05-20T06:58:36.150Z,1004.85
2019-05-20T06:59:06.089Z,1004.88
2019-05-20T07:00:06.124Z,1004.92
2019-05-20T07:00:36.156Z,1004.92
2019-05-20T07:01:06.093Z,1004.95
2019-05-20T07:01:36.151Z,1004.95
2019-05-20T07:02:36.149Z,1005.02
2019-05-20T07:03:06.094Z,1005.00
2019-05-20T07:03:36.149Z,1005.04
2019-05-20T07:04:07.313Z,1005.04
2019-05-20T07:05:10.140Z,1005.02
2019-05-20T07:05:36.153Z,1005.06
2019-05-20T07:06:06.093Z,1005.09
2019-05-20T07:06:46.277Z,1005.08
2019-05-20T07:07:20.718Z,1005.10
2019-05-20T07:08:06.105Z,1005.14
2019-05-20T07:08:36.293Z,1005.14
2019-05-20T07:09:07.114Z,1005.12
2019-05-20T07:09:36.194Z,1005.16